Time;durP1;ratioP1;P1;durP2;ratioP2;P2;SDS_P1;SDS_P2;PMS_P1;PMS_P2;Temp;Humidity;BMP_temperature;BMP_pressure;BME280_temperature;BME280_humidity;BME280_pressure;Samples;Min_cycle;Max_cycle;Signal;HPM_P1;HPM_P2
2021/12/22 00:03:28;;;;;;;;;;;;;;;-5.70;68.78;98630.19;10356712;28;20048;-57
2021/12/22 00:08:28;;;;;;;22.48;11.50;;;;;;;-5.85;69.50;98625.63;10361264;28;19925;-57
2021/12/22 00:13:29;;;;;;;35.60;19.85;;;;;;;-6.01;69.67;98614.34;10361639;28;20182;-57
2021/12/22 00:18:28;;;;;;;31.95;18.23;;;;;;;-6.05;68.97;98601.34;10361782;28;20476;-57
2021/12/22 00:23:28;;;;;;;48.55;27.63;;;;;;;-6.01;69.84;98632.03;10364807;28;20519;-57
2021/12/22 00:28:27;;;;;;;35.92;19.50;;;;;;;-6.02;69.62;98645.41;10363511;28;20163;-57
2021/12/22 00:33:28;;;;;;;43.35;23.70;;;;;;;-6.09;69.71;98645.69;10363044;28;20032;-57
2021/12/22 00:38:27;;;;;;;61.13;33.70;;;;;;;-6.08;69.57;98657.59;10362404;28;20128;-57
2021/12/22 00:43:26;;;;;;;75.25;42.33;;;;;;;-6.06;69.29;98658.56;10364323;28;20029;-57
2021/12/22 00:48:25;;;;;;;70.40;39.28;;;;;;;-6.14;69.39;98647.88;10363762;28;20416;-57
2021/12/22 00:53:24;;;;;;;;;;;;;;;-6.07;69.66;98669.44;10367714;28;20148;-57
2021/12/22 00:58:23;;;;;;;68.15;36.92;;;;;;;-6.09;69.19;98660.84;10375181;28;19912;-57
2021/12/22 01:03:22;;;;;;;;;;;;;;;-6.12;69.86;98664.03;10376058;28;20756;-57
2021/12/22 01:08:21;;;;;;;40.42;24.00;;;;;;;-6.16;69.16;98663.66;10376106;28;20447;-57
2021/12/22 01:13:20;;;;;;;;;;;;;;;-6.17;70.14;98661.91;10377831;28;20064;-57
2021/12/22 01:18:29;;;;;;;40.13;20.58;;;;;;;-6.24;69.93;98639.47;10375349;28;19908;-57
2021/12/22 01:23:34;;;;;;;39.42;21.85;;;;;;;-6.27;70.76;98636.69;10377623;28;20079;-57
2021/12/22 01:28:40;;;;;;;48.15;25.23;;;;;;;-6.28;70.72;98639.97;10376863;28;20072;-57
2021/12/22 01:33:39;;;;;;;35.92;20.80;;;;;;;-6.57;70.56;98601.56;10376111;28;20072;-57
2021/12/22 01:38:38;;;;;;;;;;;;;;;-6.39;70.97;98634.94;10378281;28;20084;-57
2021/12/22 01:43:37;;;;;;;50.23;27.57;;;;;;;-6.37;70.74;98627.50;10377160;28;20658;-57
2021/12/22 01:54:01;;;;;;;54.80;27.67;;;;;;;-6.44;71.28;98621.09;10377878;28;19966;-57
2021/12/22 01:59:04;;;;;;;73.55;34.45;;;;;;;-6.39;71.10;98629.91;10376416;28;20060;-57
2021/12/22 02:04:10;;;;;;;84.82;44.53;;;;;;;-6.46;71.63;98617.56;10376100;28;20505;-58
2021/12/22 02:09:11;;;;;;;84.22;45.63;;;;;;;-6.51;71.89;98614.66;10375002;28;20084;-57
2021/12/22 02:14:10;;;;;;;69.57;33.50;;;;;;;-6.52;71.87;98612.91;10374836;28;20068;-57
2021/12/22 02:19:11;;;;;;;72.43;37.97;;;;;;;-6.53;71.71;98625.41;10374959;28;20061;-57
2021/12/22 02:24:10;;;;;;;82.25;40.58;;;;;;;-6.66;71.95;98587.34;10375226;28;20076;-57
2021/12/22 02:29:20;;;;;;;52.05;27.60;;;;;;;-6.63;72.50;98598.56;10374390;28;20072;-57
2021/12/22 02:34:18;;;;;;;;;;;;;;;-6.66;72.14;98605.03;10374213;28;20080;-57
2021/12/22 02:39:17;;;;;;;61.10;31.97;;;;;;;-6.68;72.33;98604.00;10374594;28;19920;-57
2021/12/22 02:44:16;;;;;;;;;;;;;;;-6.68;72.66;98604.00;10358765;28;20092;-57
2021/12/22 02:49:15;;;;;;;90.43;40.13;;;;;;;-6.77;72.86;98599.97;10333114;28;20008;-57
2021/12/22 02:54:20;;;;;;;95.93;45.15;;;;;;;-6.76;73.06;98616.91;10332402;28;20544;-57
2021/12/22 02:59:46;;;;;;;87.13;41.50;;;;;;;-6.78;73.48;98603.28;10332257;28;20072;-57
2021/12/22 03:04:56;;;;;;;60.95;31.77;;;;;;;-6.95;73.71;98614.59;10329963;28;20151;-57
2021/12/22 03:09:59;;;;;;;;;;;;;;;-7.02;73.85;98609.75;10332395;28;20068;-57
2021/12/22 03:14:59;;;;;;;44.45;22.08;;;;;;;-7.09;74.03;98609.16;10332573;28;20133;-57
2021/12/22 03:19:58;;;;;;;42.22;21.73;;;;;;;-7.10;73.77;98603.22;10349703;28;20068;-57
2021/12/22 03:24:57;;;;;;;;;;;;;;;-7.09;73.50;98604.09;10373205;28;20064;-57
2021/12/22 03:29:56;;;;;;;30.10;15.70;;;;;;;-7.10;73.79;98614.97;10372594;28;19920;-57
2021/12/22 03:34:54;;;;;;;;;;;;;;;-7.16;74.31;98608.69;10373261;28;20036;-57
2021/12/22 03:39:53;;;;;;;25.50;15.60;;;;;;;-7.17;74.53;98601.84;10366649;28;20369;-57
2021/12/22 03:44:52;;;;;;;;;;;;;;;-7.19;73.32;98612.56;10332602;28;20025;-57
2021/12/22 03:49:51;;;;;;;40.63;19.38;;;;;;;-7.27;74.43;98616.13;10331872;28;19920;-57
2021/12/22 03:54:54;;;;;;;36.75;18.63;;;;;;;-7.32;74.57;98622.41;10331441;28;20068;-57
2021/12/22 03:59:57;;;;;;;43.28;20.85;;;;;;;-7.49;74.42;98615.97;10331462;28;20081;-57
2021/12/22 04:04:56;;;;;;;34.00;17.13;;;;;;;-7.69;74.55;98607.66;10331265;28;20056;-57
2021/12/22 04:09:55;;;;;;;36.35;17.08;;;;;;;-7.56;73.53;98633.88;10331586;28;20068;-57
2021/12/22 04:14:54;;;;;;;;;;;;;;;-7.78;74.94;98642.16;10345630;28;20045;-57
2021/12/22 04:19:53;;;;;;;27.80;14.23;;;;;;;-7.79;73.52;98635.34;10371797;28;19967;-57
2021/12/22 04:24:52;;;;;;;;;;;;;;;-7.78;73.71;98634.59;10372477;28;20029;-57
2021/12/22 04:29:54;;;;;;;35.70;17.03;;;;;;;-7.78;74.56;98637.13;10371584;28;20019;-57
2021/12/22 04:34:53;;;;;;;42.47;21.70;;;;;;;-7.94;73.62;98606.34;10370149;28;20138;-57
2021/12/22 04:39:52;;;;;;;;;;;;;;;-7.72;73.35;98644.31;10371962;28;20027;-57
2021/12/22 04:44:53;;;;;;;48.07;23.63;;;;;;;-7.74;73.51;98659.31;10342002;28;19940;-57
2021/12/22 04:49:52;;;;;;;68.30;31.98;;;;;;;-7.74;73.73;98658.41;10330713;28;20069;-57
2021/12/22 04:55:12;;;;;;;;;;;;;;;-7.68;74.12;98659.81;10333909;28;20029;-57
2021/12/22 05:00:11;;;;;;;;;;;;;;;-7.66;74.48;98675.06;10337957;28;19967;-57
2021/12/22 05:05:10;;;;;;;;;;;;;;;-7.64;73.66;98664.34;10338133;28;19956;-57
2021/12/22 05:10:10;;;;;;;;;;;;;;;-7.59;73.76;98663.09;10334827;28;19928;-57
2021/12/22 05:15:09;;;;;;;;;;;;;;;-7.56;73.60;98671.69;10337877;28;20384;-57
2021/12/22 05:20:08;;;;;;;;;;;;;;;-7.52;74.23;98677.09;10351390;28;19965;-57
2021/12/22 05:25:08;;;;;;;;;;;;;;;-7.55;74.28;98681.03;10337011;28;19909;-57
2021/12/22 05:30:08;;;;;;;;;;;;;;;-7.57;74.47;98682.53;10336680;28;19956;-57
2021/12/22 05:35:08;;;;;;;;;;;;;;;-7.53;73.67;98685.44;10336760;28;20055;-57
2021/12/22 05:40:07;;;;;;;;;;;;;;;-7.50;73.83;98680.66;10336048;28;19963;-57
2021/12/22 05:45:06;;;;;;;;;;;;;;;-7.47;73.15;98680.00;10357711;28;19956;-57
2021/12/22 05:50:07;;;;;;;;;;;;;;;-7.47;74.08;98680.00;10349306;28;19956;-57
2021/12/22 05:55:06;;;;;;;;;;;;;;;-7.45;74.19;98684.44;10375203;28;20367;-57
2021/12/22 06:00:05;;;;;;;;;;;;;;;-7.43;73.27;98685.44;10369972;28;20395;-57
2021/12/22 06:05:04;;;;;;;;;;;;;;;-7.58;74.13;98689.19;10361154;28;19955;-57
2021/12/22 06:10:06;;;;;;;;;;;;;;;-7.53;74.75;98690.47;10375536;28;19917;-57
2021/12/22 06:15:05;;;;;;;;;;;;;;;-7.51;74.63;98698.16;10375184;28;19952;-57
2021/12/22 06:20:05;;;;;;;;;;;;;;;-7.50;74.70;98703.34;10013780;28;19982;-57
2021/12/22 06:25:42;;;;;;;;;;;;;;;-7.40;74.76;98704.97;9794851;27;19921;-58
2021/12/22 06:30:41;;;;;;;;;;;;;;;-7.27;74.23;98705.25;10257248;28;19994;-58
2021/12/22 06:35:40;;;;;;;;;;;;;;;-7.20;75.12;98709.19;10284129;28;20004;-58
2021/12/22 06:40:38;;;;;;;;;;;;;;;-7.06;75.08;98708.69;10325024;28;19913;-58
2021/12/22 06:45:37;;;;;;;;;;;;;;;-6.87;74.97;98711.03;10323083;28;19921;-58
2021/12/22 06:50:36;;;;;;;;;;;;;;;-6.72;74.85;98712.28;10324920;28;19924;-58
2021/12/22 06:56:56;;;;;;;188.02;92.25;;;;;;;-6.52;74.25;98713.03;10521183;27;20398;-58
2021/12/22 07:01:55;;;;;;;;;;;;;;;-6.39;74.61;98715.75;10489926;28;20055;-59
2021/12/22 07:06:54;;;;;;;85.37;47.80;;;;;;;-6.18;74.79;98708.13;10488014;28;19904;-58
2021/12/22 07:11:53;;;;;;;84.85;46.78;;;;;;;-6.00;74.29;98717.16;10489157;28;20146;-58
2021/12/22 07:16:52;;;;;;;;;;;;;;;-5.89;73.66;98708.78;10486094;28;20058;-59
2021/12/22 07:21:51;;;;;;;73.68;41.35;;;;;;;-5.75;73.10;98709.88;10489442;28;19948;-58
2021/12/22 07:26:49;;;;;;;62.53;35.17;;;;;;;-5.56;73.08;98701.19;10490218;28;20028;-58
2021/12/22 07:31:48;;;;;;;94.65;48.58;;;;;;;-5.58;72.45;98700.19;10456739;28;20539;-59
2021/12/22 07:36:59;;;;;;;100.30;51.90;;;;;;;-5.55;71.90;98703.81;10350927;28;20095;-58
2021/12/22 07:41:58;;;;;;;135.65;73.22;;;;;;;-5.42;72.20;98704.78;10353912;28;20064;-59
2021/12/22 07:46:57;;;;;;;123.72;69.32;;;;;;;-5.27;72.12;98710.97;10359928;28;20025;-59
2021/12/22 07:51:56;;;;;;;157.82;91.82;;;;;;;-5.18;70.50;98699.03;10361825;28;20040;-59
2021/12/22 07:56:55;;;;;;;175.02;96.57;;;;;;;-5.03;70.16;98704.34;10360549;28;20502;-58
2021/12/22 08:01:54;;;;;;;167.43;97.75;;;;;;;-4.88;70.35;98709.69;10337544;28;20037;-58
2021/12/22 08:06:53;;;;;;;172.77;103.82;;;;;;;-4.70;70.67;98703.47;10370281;28;20092;-58
2021/12/22 08:11:53;;;;;;;157.63;87.00;;;;;;;-4.55;69.83;98707.88;10372242;28;20067;-58
2021/12/22 08:16:52;;;;;;;119.43;71.53;;;;;;;-4.36;69.10;98705.91;10371600;28;20137;-58
2021/12/22 08:21:52;;;;;;;115.93;67.45;;;;;;;-4.22;68.00;98705.25;10373863;28;20028;-58
2021/12/22 08:26:51;;;;;;;119.22;63.92;;;;;;;-4.13;66.47;98717.69;10383376;28;20067;-58
2021/12/22 08:31:50;;;;;;;113.13;61.03;;;;;;;-4.00;65.54;98721.97;10382429;28;20056;-58
2021/12/22 08:42:08;;;;;;;101.97;60.85;;;;;;;-3.64;64.60;98712.69;10353735;28;19956;-58
2021/12/22 08:47:07;;;;;;;64.97;37.42;;;;;;;-3.54;63.79;98720.16;10372353;28;20060;-59
2021/12/22 08:52:06;;;;;;;;;;;;;;;-3.48;63.89;98712.97;10373983;28;20063;-59
2021/12/22 08:57:06;;;;;;;67.07;39.72;;;;;;;-3.35;63.45;98707.94;10373368;28;19916;-58
2021/12/22 09:02:05;;;;;;;61.30;36.05;;;;;;;-3.19;62.12;98709.00;10371175;28;20075;-58
2021/12/22 09:07:04;;;;;;;55.92;30.20;;;;;;;-3.27;61.45;98712.66;10369728;28;20867;-58
2021/12/22 09:12:08;;;;;;;46.58;27.95;;;;;;;-3.32;61.36;98712.34;10373138;28;20064;-58
2021/12/22 09:17:07;;;;;;;41.55;21.90;;;;;;;-3.38;60.99;98707.75;10373161;28;20060;-58
2021/12/22 09:22:06;;;;;;;25.98;13.68;;;;;;;-3.24;61.47;98692.59;10374066;28;20486;-58
2021/12/22 09:27:05;;;;;;;18.27;9.63;;;;;;;-2.84;61.25;98702.88;10398952;28;20033;-58
2021/12/22 09:32:04;;;;;;;15.10;9.02;;;;;;;-2.51;58.98;98672.06;10371106;28;20040;-58
2021/12/22 09:37:03;;;;;;;;;;;;;;;-2.46;56.13;98686.72;10374184;28;20084;-58
2021/12/22 09:42:03;;;;;;;18.25;11.02;;;;;;;-2.22;56.70;98688.28;10351615;28;20019;-58
2021/12/22 09:47:05;;;;;;;18.10;11.55;;;;;;;-1.79;56.34;98691.03;10359726;28;20056;-59
2021/12/22 09:52:18;;;;;;;15.27;8.43;;;;;;;-1.80;55.04;98686.69;10371264;28;20073;-58
2021/12/22 09:57:19;;;;;;;17.08;8.90;;;;;;;-1.73;54.27;98683.75;10399933;28;20083;-57
2021/12/22 10:02:22;;;;;;;15.35;10.05;;;;;;;-1.62;52.51;98668.28;10395615;28;20064;-57
2021/12/22 10:07:26;;;;;;;19.88;12.52;;;;;;;-1.44;52.22;98671.94;10351845;28;20053;-57
2021/12/22 10:12:26;;;;;;;28.33;17.52;;;;;;;-1.38;53.48;98640.88;10363952;28;20072;-57
2021/12/22 10:17:37;;;;;;;46.25;25.75;;;;;;;-1.17;53.09;98651.47;10356524;28;20131;-57
2021/12/22 10:22:42;;;;;;;31.15;17.45;;;;;;;-1.07;53.04;98652.13;10379512;28;20056;-57
2021/12/22 10:27:44;;;;;;;26.40;14.00;;;;;;;-0.87;53.31;98666.00;10358630;28;20052;-57
2021/12/22 10:32:43;;;;;;;24.60;12.57;;;;;;;-0.59;53.09;98667.59;10364350;28;20129;-57
2021/12/22 10:37:44;;;;;;;28.70;17.88;;;;;;;-0.55;52.70;98659.34;10381617;28;20028;-57
2021/12/22 10:42:43;;;;;;;16.40;9.95;;;;;;;-0.62;52.71;98658.13;10374904;28;20063;-57
2021/12/22 10:53:11;;;;;;;17.25;11.30;;;;;;;-0.34;51.54;98654.59;10386129;28;20133;-57
2021/12/22 10:58:24;;;;;;;20.63;13.68;;;;;;;-0.29;51.27;98647.19;10365626;28;20108;-57
2021/12/22 11:03:35;;;;;;;24.60;15.55;;;;;;;-0.33;50.45;98615.53;10366977;28;20109;-57
2021/12/22 11:08:34;;;;;;;24.40;15.25;;;;;;;-0.02;49.81;98633.41;10403067;28;20068;-57
2021/12/22 11:13:33;;;;;;;29.45;18.33;;;;;;;0.18;50.09;98625.94;10370992;28;20056;-57
2021/12/22 11:18:34;;;;;;;27.40;16.98;;;;;;;0.36;49.07;98616.72;10370962;28;20055;-59
2021/12/22 11:23:34;;;;;;;29.88;17.52;;;;;;;0.24;48.19;98605.84;10412613;28;20060;-57
2021/12/22 11:28:34;;;;;;;24.75;14.95;;;;;;;0.30;48.90;98611.28;10412384;28;20059;-57
2021/12/22 11:33:34;;;;;;;23.40;14.75;;;;;;;0.42;49.44;98595.72;10410326;28;20063;-57
2021/12/22 11:38:33;;;;;;;28.40;17.65;;;;;;;0.65;48.75;98594.38;10402431;28;20067;-57
2021/12/22 11:43:36;;;;;;;26.90;14.70;;;;;;;0.55;48.16;98571.72;10376828;28;20068;-56
2021/12/22 11:48:35;;;;;;;27.63;15.57;;;;;;;0.51;48.15;98580.03;10392115;28;20052;-57
2021/12/22 11:53:52;;;;;;;23.48;16.73;;;;;;;0.61;48.34;98587.34;10378365;28;20481;-57
2021/12/22 11:58:51;;;;;;;28.80;17.98;;;;;;;0.66;48.76;98584.25;10377842;28;20083;-57
2021/12/22 12:03:50;;;;;;;33.38;21.63;;;;;;;0.81;48.39;98589.25;10403865;28;20030;-57
2021/12/22 12:08:53;;;;;;;36.80;22.63;;;;;;;0.87;48.44;98592.13;10377334;28;20037;-57
2021/12/22 12:13:56;;;;;;;34.08;22.02;;;;;;;0.96;48.26;98570.38;10373318;28;20061;-57
2021/12/22 12:24:48;;;;;;;;;;;;;;;1.03;47.11;98575.84;10378175;28;20423;-57
2021/12/22 12:29:56;;;;;;;35.78;20.20;;;;;;;0.86;47.42;98561.38;10381302;28;19948;-57
2021/12/22 12:35:23;;;;;;;43.67;26.45;;;;;;;0.79;47.79;98566.97;10392366;28;20060;-57
2021/12/22 12:40:22;;;;;;;48.72;28.60;;;;;;;0.63;47.88;98578.97;10376014;28;20498;-57
2021/12/22 12:45:44;;;;;;;49.25;28.00;;;;;;;0.39;47.54;98565.81;10375645;28;20087;-58
2021/12/22 12:51:28;;;;;;;31.85;20.95;;;;;;;0.14;48.16;98567.88;10362603;28;20933;-58
2021/12/22 12:56:35;;;;;;;21.70;15.98;;;;;;;-0.10;48.73;98567.47;10373177;28;20075;-57
2021/12/22 13:01:46;;;;;;;30.65;24.02;;;;;;;-0.10;48.58;98573.44;10374645;28;20071;-57
2021/12/22 13:06:45;;;;;;;15.68;10.35;;;;;;;-0.42;47.87;98554.69;10374686;28;20067;-57
2021/12/22 13:12:17;;;;;;;25.10;14.90;;;;;;;-0.20;48.52;98566.09;10387881;28;20835;-57
2021/12/22 13:17:18;;;;;;;21.73;10.57;;;;;;;-0.19;48.63;98542.31;10357662;28;21200;-57
2021/12/22 13:22:17;;;;;;;16.85;10.40;;;;;;;-0.31;49.25;98577.38;10374370;28;20055;-57
2021/12/22 13:27:28;;;;;;;16.20;9.38;;;;;;;-0.47;49.42;98561.22;10387370;28;20069;-57
2021/12/22 13:32:27;;;;;;;18.10;11.02;;;;;;;-0.39;49.65;98577.81;10372858;28;20087;-57
2021/12/22 13:37:30;;;;;;;23.23;13.15;;;;;;;-0.28;49.60;98582.63;10372375;28;20095;-58
2021/12/22 13:42:35;;;;;;;21.70;12.85;;;;;;;-0.27;49.49;98581.84;10403193;28;20060;-57
2021/12/22 13:47:34;;;;;;;16.60;10.57;;;;;;;-0.17;49.42;98576.44;10372853;28;20044;-57
2021/12/22 13:52:33;;;;;;;12.25;8.27;;;;;;;-0.16;48.85;98578.19;10373018;28;20045;-58
2021/12/22 13:57:32;;;;;;;15.23;9.05;;;;;;;-0.09;49.05;98579.41;10411390;28;20064;-57
2021/12/22 14:02:33;;;;;;;26.38;13.55;;;;;;;-0.16;48.89;98583.28;10375732;28;20025;-57
2021/12/22 14:07:32;;;;;;;22.00;12.50;;;;;;;-0.15;48.87;98590.16;10375940;28;20077;-57
2021/12/22 14:12:33;;;;;;;16.10;10.13;;;;;;;-0.20;48.56;98589.03;10372922;28;20033;-58
2021/12/22 14:17:37;;;;;;;20.98;10.73;;;;;;;-0.24;48.55;98590.53;10372212;28;20065;-57
2021/12/22 14:22:39;;;;;;;23.08;11.95;;;;;;;-0.31;48.63;98578.25;10370609;28;20064;-57
2021/12/22 14:27:46;;;;;;;58.95;26.02;;;;;;;-0.35;49.68;98591.59;10371520;28;20505;-57
2021/12/22 14:33:02;;;;;;;47.03;25.85;;;;;;;-0.56;50.08;98590.41;10368840;28;20132;-57
2021/12/22 14:38:04;;;;;;;42.65;22.67;;;;;;;-0.68;51.04;98604.22;10386201;28;20064;-57
2021/12/22 14:43:11;;;;;;;40.90;24.15;;;;;;;-0.80;51.01;98606.97;10376018;28;20076;-57
2021/12/22 14:48:30;;;;;;;66.30;38.65;;;;;;;-0.92;51.86;98618.13;10371410;28;20061;-57
2021/12/22 14:53:47;;;;;;;76.05;42.85;;;;;;;-1.18;51.93;98596.25;10361077;28;20128;-57
2021/12/22 14:58:48;;;;;;;63.72;37.70;;;;;;;-1.26;52.71;98624.69;10365321;28;20084;-57
2021/12/22 15:03:49;;;;;;;78.95;43.58;;;;;;;-1.42;53.37;98624.56;10371637;28;20063;-57
2021/12/22 15:08:49;;;;;;;104.93;54.92;;;;;;;-1.60;53.47;98614.13;10388507;28;20068;-57
2021/12/22 15:13:49;;;;;;;107.53;57.45;;;;;;;-1.74;54.83;98620.94;10363716;28;20066;-57
2021/12/22 15:18:49;;;;;;;76.88;43.83;;;;;;;-1.88;55.54;98625.19;10376495;28;20086;-57
2021/12/22 15:23:50;;;;;;;69.20;38.97;;;;;;;-2.11;55.48;98616.13;10379494;28;20072;-57
2021/12/22 15:28:50;;;;;;;75.38;40.67;;;;;;;-2.13;55.78;98637.16;10378017;28;20065;-57
2021/12/22 15:33:49;;;;;;;70.50;38.92;;;;;;;-2.36;56.79;98618.81;10382161;28;20064;-57
2021/12/22 15:38:48;;;;;;;64.28;34.75;;;;;;;-2.43;57.20;98636.09;10402466;28;20057;-57
2021/12/22 15:43:47;;;;;;;54.53;30.48;;;;;;;-2.67;57.62;98636.28;10377164;28;20041;-57
2021/12/22 15:48:46;;;;;;;55.78;27.88;;;;;;;-2.81;58.06;98637.03;10385511;28;20029;-58
2021/12/22 15:53:45;;;;;;;60.10;28.88;;;;;;;-2.97;57.64;98620.81;10389102;28;20056;-58
2021/12/22 15:58:44;;;;;;;54.15;27.70;;;;;;;-2.97;58.16;98646.22;10378746;28;20057;-58
2021/12/22 16:03:44;;;;;;;45.47;24.45;;;;;;;-3.04;58.35;98644.00;10379898;28;20028;-58
2021/12/22 16:08:43;;;;;;;38.95;21.58;;;;;;;-3.10;58.54;98651.25;10377341;28;20447;-58
2021/12/22 16:13:42;;;;;;;36.33;20.75;;;;;;;-3.19;58.79;98651.50;10374260;28;20112;-58
2021/12/22 16:18:41;;;;;;;36.88;20.13;;;;;;;-3.45;59.29;98624.38;10381507;28;20060;-57
2021/12/22 16:23:40;;;;;;;42.33;19.98;;;;;;;-3.37;58.92;98658.75;10367959;28;20143;-57
2021/12/22 16:28:39;;;;;;;;;;;;;;;-3.49;59.10;98657.91;10319400;28;20430;-58
2021/12/22 16:33:38;;;;;;;31.55;17.05;;;;;;;-3.57;59.81;98669.22;10344712;28;20582;-58
2021/12/22 16:38:37;;;;;;;30.80;17.45;;;;;;;-3.56;59.43;98660.81;10342683;28;20418;-58
2021/12/22 16:43:36;;;;;;;30.55;18.80;;;;;;;-3.61;58.68;98677.38;10343882;28;20071;-58
2021/12/22 16:48:35;;;;;;;32.58;19.60;;;;;;;-3.66;59.39;98682.13;10342981;28;20834;-58
2021/12/22 16:53:34;;;;;;;33.60;19.83;;;;;;;-3.71;59.86;98680.06;10342851;28;20715;-58
2021/12/22 16:58:34;;;;;;;34.45;20.10;;;;;;;-3.74;59.71;98679.81;10341563;28;20838;-57
2021/12/22 17:03:33;;;;;;;40.97;22.73;;;;;;;-3.80;60.18;98676.09;10342136;28;20044;-57
2021/12/22 17:08:37;;;;;;;35.97;21.42;;;;;;;-3.97;59.86;98666.44;10342544;28;20734;-57
2021/12/22 17:13:37;;;;;;;49.40;26.17;;;;;;;-3.91;60.35;98677.00;10343023;28;20062;-57
2021/12/22 17:18:36;;;;;;;97.03;54.80;;;;;;;-3.90;61.10;98703.22;10341693;28;20119;-57
2021/12/22 17:23:36;;;;;;;78.18;47.20;;;;;;;-3.89;61.72;98705.88;10342570;28;20132;-58
2021/12/22 17:28:38;;;;;;;84.45;48.33;;;;;;;-3.85;61.83;98702.78;10339972;28;20585;-57
2021/12/22 17:33:38;;;;;;;79.68;50.70;;;;;;;-3.79;61.34;98700.69;10339341;28;20141;-57
2021/12/22 17:38:37;;;;;;;92.53;55.03;;;;;;;-3.79;62.35;98708.31;10337616;28;20136;-58
2021/12/22 17:43:36;;;;;;;132.07;79.18;;;;;;;-3.80;62.75;98701.47;10338146;28;20037;-57
2021/12/22 17:48:35;;;;;;;111.13;67.25;;;;;;;-3.65;62.83;98714.31;10338479;28;20038;-58
2021/12/22 17:53:34;;;;;;;81.20;45.08;;;;;;;-3.61;62.41;98712.88;10339279;28;20136;-58
2021/12/22 17:58:34;;;;;;;81.30;43.92;;;;;;;-3.54;62.59;98720.16;10339507;28;20112;-57
2021/12/22 18:03:33;;;;;;;132.05;69.15;;;;;;;-3.51;61.88;98727.97;10339008;28;20029;-58
2021/12/22 18:08:31;;;;;;;130.95;66.78;;;;;;;-3.48;62.71;98715.50;10339804;28;20031;-58
2021/12/22 18:13:30;;;;;;;64.20;36.20;;;;;;;-3.54;61.60;98720.16;10338915;28;20037;-58
2021/12/22 18:18:30;;;;;;;61.95;33.60;;;;;;;-3.52;61.61;98718.59;10338812;28;20064;-57
2021/12/22 18:23:28;;;;;;;61.33;31.02;;;;;;;-3.55;61.42;98708.25;10339273;28;20083;-58
2021/12/22 18:28:28;;;;;;;190.57;107.25;;;;;;;-3.61;62.01;98713.75;10338670;28;20040;-58
2021/12/22 18:33:28;;;;;;;348.10;174.52;;;;;;;-3.55;62.55;98733.63;10337902;28;20040;-58
2021/12/22 18:38:30;;;;;;;;;;;;;;;-3.52;63.38;98736.38;10339170;28;20426;-58
2021/12/22 18:43:31;;;;;;;140.52;69.53;;;;;;;-3.49;63.05;98739.09;10336232;28;20003;-58
2021/12/22 18:48:30;;;;;;;84.20;45.78;;;;;;;-3.55;62.70;98726.00;10337827;28;20064;-58
2021/12/22 18:53:30;;;;;;;32.03;18.77;;;;;;;-3.59;62.80;98731.63;10338477;28;20150;-58
2021/12/22 18:58:29;;;;;;;36.45;20.00;;;;;;;-3.49;61.82;98743.31;10337132;28;20087;-58
2021/12/22 19:03:28;;;;;;;118.03;70.10;;;;;;;-3.48;62.75;98748.50;10337205;28;20037;-58
2021/12/22 19:08:27;;;;;;;128.07;74.60;;;;;;;-3.55;62.86;98741.25;10338288;28;20047;-58
2021/12/22 19:13:26;;;;;;;159.93;81.03;;;;;;;-3.80;64.80;98752.19;10337378;28;20041;-58
2021/12/22 19:18:25;;;;;;;136.85;75.75;;;;;;;-3.86;65.41;98761.88;10352625;28;20045;-58
2021/12/22 19:23:24;;;;;;;80.22;45.33;;;;;;;-3.87;65.98;98754.19;10337394;28;20132;-58
2021/12/22 19:28:23;;;;;;;86.60;49.47;;;;;;;-3.74;66.31;98766.06;10336890;28;20048;-58
2021/12/22 19:33:25;;;;;;;70.75;38.47;;;;;;;-3.79;66.34;98768.25;10336850;28;20242;-58
2021/12/22 19:38:24;;;;;;;83.47;47.22;;;;;;;-3.90;68.08;98775.13;10337664;28;20051;-58
2021/12/22 19:43:24;;;;;;;62.25;32.97;;;;;;;-4.08;67.41;98741.72;10336906;28;20593;-58
2021/12/22 19:48:23;;;;;;;64.60;39.28;;;;;;;-3.95;67.38;98755.25;10337518;28;20124;-58
2021/12/22 19:53:22;;;;;;;68.03;37.53;;;;;;;-3.71;67.31;98779.84;10336753;28;20807;-58
2021/12/22 19:58:21;;;;;;;64.22;38.22;;;;;;;-3.56;66.86;98785.13;10336531;28;20884;-58
2021/12/22 20:03:22;;;;;;;52.83;30.08;;;;;;;-3.52;67.01;98764.28;10341778;28;20132;-58
2021/12/22 20:08:21;;;;;;;57.17;33.88;;;;;;;-3.31;66.23;98769.09;10344944;28;20042;-58
2021/12/22 20:13:19;;;;;;;71.60;43.20;;;;;;;-3.31;66.85;98769.09;10342737;28;20044;-58
2021/12/22 20:18:18;;;;;;;120.60;67.70;;;;;;;-3.29;66.71;98767.53;10343371;28;20045;-58
2021/12/22 20:23:17;;;;;;;132.23;77.40;;;;;;;-3.25;66.63;98770.38;10342536;28;20033;-58
2021/12/22 20:28:17;;;;;;;188.25;98.95;;;;;;;-3.25;67.15;98779.66;10342296;28;20838;-58
2021/12/22 20:33:16;;;;;;;153.43;83.65;;;;;;;-3.31;67.10;98775.03;10342375;28;20119;-58
2021/12/22 20:38:15;;;;;;;140.63;83.00;;;;;;;-3.24;66.34;98772.16;10341549;28;20120;-58
2021/12/22 20:43:15;;;;;;;143.73;81.55;;;;;;;-3.30;66.89;98771.72;10341231;28;20041;-58
2021/12/22 20:48:14;;;;;;;151.57;85.88;;;;;;;-3.20;66.20;98773.22;10339357;28;20174;-58
2021/12/22 20:53:13;;;;;;;141.75;78.25;;;;;;;-3.23;66.16;98765.41;10341502;28;20060;-58
2021/12/22 20:58:12;;;;;;;139.00;77.20;;;;;;;-3.23;65.87;98765.41;10341294;28;20176;-58
2021/12/22 21:03:12;;;;;;;134.10;78.25;;;;;;;-3.20;66.28;98768.16;10340270;28;20135;-58
2021/12/22 21:08:11;;;;;;;142.35;76.97;;;;;;;-3.20;66.54;98763.97;10339345;28;20047;-58
2021/12/22 21:13:12;;;;;;;67.65;38.55;;;;;;;-3.14;66.33;98766.03;10339583;28;20048;-58
2021/12/22 21:18:11;;;;;;;47.25;26.33;;;;;;;-3.18;65.62;98756.44;10339207;28;20167;-58
2021/12/22 21:23:10;;;;;;;41.38;26.10;;;;;;;-3.07;65.14;98765.69;10341507;28;20076;-58
2021/12/22 21:28:10;;;;;;;70.50;38.47;;;;;;;-3.13;64.19;98765.28;10340345;28;20442;-58
2021/12/22 21:33:10;;;;;;;80.32;45.80;;;;;;;-3.26;64.83;98767.75;10339738;28;20892;-58
2021/12/22 21:38:09;;;;;;;61.67;33.63;;;;;;;-3.38;65.11;98761.03;10340059;28;20045;-58
2021/12/22 21:43:09;;;;;;;;;;;;;;;-3.39;65.62;98761.84;10340860;28;20046;-58
2021/12/22 21:48:09;;;;;;;69.55;39.50;;;;;;;-3.46;65.68;98754.56;10340778;28;19983;-58
2021/12/22 21:53:08;;;;;;;65.00;40.20;;;;;;;-3.63;66.22;98740.69;10340844;28;20059;-58
2021/12/22 21:58:07;;;;;;;94.97;51.33;;;;;;;-3.71;66.97;98766.28;10340466;28;20037;-58
2021/12/22 22:03:08;;;;;;;103.63;57.88;;;;;;;-3.97;67.73;98753.53;10340110;28;20964;-58
2021/12/22 22:08:07;;;;;;;117.80;64.57;;;;;;;-4.00;68.63;98758.38;10340045;28;20132;-58
2021/12/22 22:13:09;;;;;;;137.02;77.85;;;;;;;-4.13;69.28;98755.72;10339199;28;20144;-58
2021/12/22 22:18:08;;;;;;;134.27;76.68;;;;;;;-4.45;69.55;98735.63;10338814;28;20041;-58
2021/12/22 22:23:07;;;;;;;118.13;64.93;;;;;;;-4.34;68.13;98762.66;10338867;28;20029;-58
2021/12/22 22:28:06;;;;;;;109.63;57.53;;;;;;;-4.46;69.15;98769.34;10339546;28;20120;-58
2021/12/22 22:33:06;;;;;;;129.57;61.70;;;;;;;-4.59;69.84;98775.16;10338800;28;20047;-58
2021/12/22 22:38:05;;;;;;;89.68;45.28;;;;;;;-4.63;69.06;98775.69;10338077;28;20033;-58
2021/12/22 22:43:04;;;;;;;88.60;45.20;;;;;;;-4.73;69.05;98784.25;10338204;28;20122;-58
2021/12/22 22:48:03;;;;;;;;;;;;;;;-4.84;69.75;98774.94;10338807;28;20116;-58
2021/12/22 22:53:02;;;;;;;107.65;55.65;;;;;;;-4.90;70.50;98774.50;10338397;28;19921;-58
2021/12/22 22:58:01;;;;;;;119.50;56.70;;;;;;;-5.10;71.14;98776.41;10337466;28;20037;-58
2021/12/22 23:03:00;;;;;;;102.93;48.97;;;;;;;-5.15;70.87;98764.16;10337297;28;20083;-58
2021/12/22 23:08:00;;;;;;;75.65;37.22;;;;;;;-5.24;70.73;98782.03;10336643;28;20031;-58
2021/12/22 23:13:00;;;;;;;74.72;38.00;;;;;;;-5.32;70.63;98771.34;10337981;28;20155;-58
2021/12/22 23:18:08;;;;;;;57.60;31.15;;;;;;;-5.37;70.04;98766.72;10335892;28;20116;-58
2021/12/22 23:23:11;;;;;;;61.25;31.25;;;;;;;-5.49;71.10;98764.97;10335117;28;21357;-58
2021/12/22 23:28:11;;;;;;;54.72;30.50;;;;;;;-5.52;71.21;98764.75;10335916;28;20197;-58
2021/12/22 23:33:15;;;;;;;79.72;42.03;;;;;;;-5.61;71.38;98764.03;10336407;28;20033;-58
2021/12/22 23:39:09;;;;;;;113.72;60.05;;;;;;;-5.65;71.83;98767.09;10341762;28;20490;-58